Station 45201 - Erie Islands Buoy Image indicating link to RSS feed of recent meteorological observations for station 45201


Conditions at 45201 as of
(11:50 am EDT)
1550 GMT on 08/31/2026:
     

Click on the graph icon in the table below to see a time series plot of the last five days of that observation.

5-day plot - Wind Direction Wind Direction (WDIR): SW ( 220 deg true )
5-day plot - Wind Speed Wind Speed (WSPD): 9.7 kts
5-day plot - Wind Gust Wind Gust (GST): 13.6 kts
5-day plot - Wave Height Wave Height (WVHT): 1.0 ft
5-day plot - Mean Wave Direction Mean Wave Direction (MWD):SSW ( 206 deg true )
5-day plot - Atmospheric Pressure Atmospheric Pressure (PRES):30.04 in
5-day plot - Air Temperature Air Temperature (ATMP): 79.3 °F
5-day plot - Water Temperature Water Temperature (WTMP): 74.8 °F
5-day plot - Dew Point Dew Point (DEWP): 70.3 °F
5-day plot - Heat Index Heat Index (HEAT): 82.2 °F
5-day plot - Wind Speed at 10 Meters Wind Speed at 10 meters (WSPD10M): 11.7 kts
5-day plot - Wind Speed at 20 Meters Wind Speed at 20 meters (WSPD20M): 13.6 kts
5-day plot -  Wind Speed, Wind Gust and Atmospheric Pressure Combined plot of Wind Speed, Gust, and Air Pressure
Previous observations
TIME
(EDT)
5-day plot - Wind Direction
WDIR
 
5-day plot - Wind Speed
WSPD
kts
5-day plot - Wind Gust
GST
kts
5-day plot - Wave Height
WVHT
ft
5-day plot - Dominant Wave Period
DPD
sec
5-day plot - Average Wave Period
APD
sec
5-day plot - Mean Wave Direction
MWD
 
5-day plot - Atmospheric Pressure
PRES
in
5-day plot - Pressure Tendency
PTDY
in
5-day plot - Air Temperature
ATMP
°F
5-day plot - Water Temperature
WTMP
°F
5-day plot - Dew Point
DEWP
°F
5-day plot - Salinity
SAL
psu
5-day plot - Visibility
VIS
nmi
5-day plot - Tide (above MLLW)
TIDE
ft
2026-08-31 11:40 amSSW 9.7 15.5 1.0--SSW30.04- 79.2 74.8 70.0---
2026-08-31 11:30 amSSW 9.7 13.6 1.0-- SW30.04- 78.6 74.8 70.0---
2026-08-31 11:20 amSSW 9.7 11.7 1.0-- S30.04- 78.3 74.8 70.0---
2026-08-31 11:10 am S 9.7 11.7 1.0-- S30.05- 77.9 74.8 69.8---
2026-08-31 11:00 amSSW 9.7 13.6 1.0-- S30.05+0.01 77.9 74.8 69.6---
2026-08-31 10:50 amSSW 9.7 13.6 1.0-- S30.05- 78.1 74.8 69.6---
2026-08-31 10:40 amSSW 9.7 13.6 0.7--SSE30.05- 78.1 74.8 69.4---
2026-08-31 10:30 am S 9.7 13.6 0.7-- S30.05- 77.4 74.8 69.3---
2026-08-31 10:20 am S 9.7 11.7 0.7--SSE30.04- 76.6 74.8 69.4---
2026-08-31 10:10 am S 9.7 11.7 1.0--SSE30.04- 76.5 74.8 69.3---
2026-08-31 10:00 am S 9.7 13.6 0.7--SSE30.03+0.00 76.1 74.7 69.3---
2026-08-31 09:50 am S 9.7 13.6 0.7--SSE30.04- 75.9 74.7 69.1---
2026-08-31 09:40 am S 9.7 13.6 0.7--SSE30.04- 75.9 74.7 69.1---
2026-08-31 09:30 am S 9.7 13.6 0.7-- S30.04- 75.7 74.7 69.3---
2026-08-31 09:20 am S 9.7 11.7 0.7--SSE30.04- 75.7 74.7 69.1---
2026-08-31 09:10 am S 9.7 13.6 0.7--SSE30.03- 75.6 74.7 69.1---
2026-08-31 09:00 am S 9.7 13.6 0.7--SSE30.04+0.02 75.4 74.7 69.3---
2026-08-31 08:50 am S 9.7 11.7 0.7--SSE30.04- 75.2 74.7 69.1---
2026-08-31 08:40 am S 9.7 11.7 0.7--SSE30.03- 75.2 74.7 69.1---
2026-08-31 08:30 am S 9.7 11.7 0.7-- S30.03- 75.2 74.7 68.9---
2026-08-31 08:20 am S 9.7 11.7 0.7-- S30.04- 75.2 74.7 68.9---
2026-08-31 08:10 am S 7.8 11.7 0.7--SSW30.04- 75.2 74.7 68.7---
2026-08-31 08:00 am S 7.8 9.7 0.7--SSW30.04+0.02 75.2 74.7 68.5---
2026-08-31 07:50 am S 5.8 9.7 0.7--SSW30.04- 75.2 74.7 68.5---
2026-08-31 07:40 amSSW 7.8 9.7 0.7-- SW30.04- 75.4 74.7 68.2---
2026-08-31 07:30 amSSW 7.8 9.7 0.7--SSW30.04- 75.6 74.7 68.2---
2026-08-31 07:20 amSSW 5.8 7.8 0.7-- S30.04- 75.6 74.7 68.5---
2026-08-31 07:10 amSSW 5.8 7.8 0.7-- S30.04- 75.6 74.7 68.4---
2026-08-31 07:00 amSSW 5.8 7.8 0.7-- S30.04+0.01 75.6 74.7 68.4---
2026-08-31 06:50 amSSW 5.8 7.8 0.7--SSE30.03- 75.7 74.7 68.5---
2026-08-31 06:40 am S 5.8 7.8 0.7--SSE30.03- 75.4 74.7 68.5---
2026-08-31 06:30 am S 5.8 7.8 0.7-- S30.03- 75.4 74.7 68.5---
2026-08-31 06:20 amSSW 5.8 9.7 0.7--SSE30.03- 75.4 74.7 68.5---
2026-08-31 06:10 amSSW 7.8 11.7 0.7-- S30.02- 75.4 74.7 68.4---
2026-08-31 06:00 am S 7.8 9.7 1.0-- S30.02-0.01 75.4 74.7 68.5---
2026-08-31 05:50 am S 9.7 11.7 1.0-- S30.01- 75.2 74.7 68.4---
2026-08-31 05:40 am S 11.7 15.5 1.0-- S30.01- 75.4 74.7 68.4---
2026-08-31 05:30 am S 11.7 15.5 1.0-- S30.01- 75.6 74.7 68.5---
2026-08-31 05:20 am S 13.6 15.5 1.0-- S30.01- 75.7 74.7 68.5---
2026-08-31 05:10 am S 11.7 17.5 1.0-- S30.02- 75.7 74.7 68.5---
2026-08-31 05:00 am S 11.7 15.5 1.0-- S30.02-0.02 75.6 74.7 68.4---
2026-08-31 04:50 am S 9.7 13.6 0.7-- S30.02- 75.6 74.7 68.4---
2026-08-31 04:40 am S 9.7 13.6 1.0--SSE30.02- 75.4 74.7 68.5---
2026-08-31 04:30 am S 9.7 11.7 1.0--SSE30.02- 75.2 74.7 68.7---
2026-08-31 04:20 am S 9.7 15.5 0.7-- E30.02- 75.2 74.7 68.7---
2026-08-31 04:10 am S 9.7 11.7 1.0 3- E30.03- 75.0 74.8 68.7---
2026-08-31 04:00 am S 7.8 9.7 1.0 3- E30.03-0.02 74.8 74.8 68.7---
2026-08-31 03:50 am S 7.8 9.7 0.7-- E30.02- 74.8 74.8 68.7---
2026-08-31 03:40 am S 7.8 9.7 0.7-- E30.02- 74.7 74.8 68.7---
2026-08-31 03:30 am S 7.8 11.7 1.0 3- E30.03- 74.5 74.8 68.7---
2026-08-31 03:20 am S 9.7 11.7 0.7-- E30.03- 74.5 74.8 68.5---
2026-08-31 03:10 am S 9.7 11.7 1.0--SSE30.03- 74.5 74.8 68.7---
2026-08-31 03:00 am S 9.7 11.7 1.0 3- E30.03-0.01 74.7 74.8 68.7---
2026-08-31 02:50 am S 9.7 13.6 1.0 3- E30.03- 74.8 74.8 68.5---
2026-08-31 02:40 am S 9.7 13.6 1.0 3- E30.03- 74.8 74.8 68.5---
2026-08-31 02:30 am S 9.7 11.7 1.0 3- E30.03- 74.8 74.8 68.5---
2026-08-31 02:20 am S 9.7 11.7 1.0 3- E30.03- 74.7 74.8 68.5---
2026-08-31 02:10 am S 9.7 11.7 1.0 3- E30.04- 74.7 74.8 68.9---
2026-08-31 02:00 am S 9.7 11.7 1.0 3- E30.04-0.01 74.7 74.8 68.7---
2026-08-31 01:50 am S 7.8 11.7 1.0 3- E30.04- 74.7 74.8 68.9---
2026-08-31 01:40 am S 7.8 11.7 1.0 3- E30.04- 74.7 74.8 68.7---
2026-08-31 01:30 am S 9.7 11.7 1.0 3- E30.04- 74.5 74.8 68.7---
2026-08-31 01:20 am S 11.7 13.6 1.0--SSE30.04- 74.5 74.8 68.4---
2026-08-31 01:10 am S 9.7 13.6 1.0 3-ESE30.05- 74.5 74.8 68.4---
2026-08-31 01:00 am S 11.7 15.5 1.0-- SE30.05+0.00 74.5 74.8 68.2---
2026-08-31 12:50 amSSE 11.7 15.5 1.0 3- E30.04- 74.5 74.8 68.4---
2026-08-31 12:40 am S 11.7 15.5 1.0-- SE30.04- 74.5 74.8 68.5---
2026-08-31 12:30 am S 11.7 15.5 1.0 2- SE30.04- 74.5 74.8 68.4---
2026-08-31 12:20 amSSE 13.6 17.5 1.3 2-ESE30.04- 74.7 74.8 68.4---
2026-08-31 12:10 amSSE 13.6 15.5 1.3 2-ESE30.04- 74.7 74.8 68.4---
2026-08-31 12:00 amSSE 13.6 17.5 1.0 2- SE30.04-0.02 74.8 74.8 68.2---
2026-08-30 11:50 pmSSE 11.7 15.5 1.3 2- SE30.04- 74.8 74.8 68.5---
2026-08-30 11:40 pmSSE 13.6 17.5 1.0 2-ESE30.04- 74.8 74.8 68.5---
2026-08-30 11:30 pmSSE 11.7 15.5 1.3 2- E30.04- 74.8 74.8 68.5---
2026-08-30 11:20 pmSSE 11.7 13.6 1.0 2-ESE30.04- 74.8 74.8 68.7---
2026-08-30 11:10 pmSSE 11.7 15.5 1.0 2-ESE30.05- 74.8 74.8 68.7---
2026-08-30 11:00 pmSSE 11.7 15.5 1.0 2- E30.05-0.03 74.8 74.8 68.5---
2026-08-30 10:50 pmSSE 11.7 15.5 1.0 2-ESE30.05- 75.0 74.8 68.7---
2026-08-30 10:40 pmSSE 11.7 13.6 1.0 2-ESE30.05- 75.0 74.8 68.7---
2026-08-30 10:30 pmSSE 11.7 15.5 1.0--ESE30.04- 75.0 74.8 68.5---
2026-08-30 10:20 pm SE 11.7 15.5 0.7--ESE30.04- 75.2 74.8 68.5---
2026-08-30 10:10 pm SE 11.7 15.5 0.7--ESE30.05- 75.2 74.8 68.4---
2026-08-30 10:00 pm SE 11.7 15.5 0.7--ESE30.05-0.03 75.2 74.8 68.4---
2026-08-30 09:50 pm SE 11.7 13.6 0.7--ESE30.05- 75.0 74.8 68.5---
2026-08-30 09:40 pm SE 11.7 15.5 0.7--ESE30.05- 75.0 74.8 68.9---
2026-08-30 09:30 pm SE 11.7 13.6 0.7-- SE30.05- 75.0 74.8 69.1---
2026-08-30 09:20 pm SE 9.7 11.7 0.7--ESE30.06- 75.2 74.8 68.9---
2026-08-30 09:10 pm SE 9.7 11.7 0.3--ESE30.06- 75.0 74.8 68.9---
2026-08-30 09:00 pm SE 9.7 11.7 0.3-- S30.06+0.03 74.8 74.8 69.3---
2026-08-30 08:50 pmESE 7.8 9.7 0.3-- E30.07- 75.0 74.8 69.6---
2026-08-30 08:40 pmESE 5.8 7.8 0.7--SSW30.07- 75.2 74.8 69.4---
2026-08-30 08:30 pm SE 5.8 7.8 0.7-- E30.07- 75.6 74.8 68.2---
2026-08-30 08:20 pm S 3.9 5.8 0.7-- S30.07- 75.7 74.8 67.1---
2026-08-30 08:10 pm S 5.8 7.8 0.7-- SE30.07- 75.4 74.8 68.2---
2026-08-30 08:00 pmSSW 3.9 5.8 0.7-- SE30.07+0.04 75.2 75.0 68.9---
2026-08-30 07:50 pm SW 3.9 5.8 0.7-- E30.08- 75.2 75.0 69.1---
2026-08-30 07:40 pmWSW 3.9 5.8 0.7--ESE30.08- 75.2 75.0 69.1---
2026-08-30 07:20 pmWNW 3.9 5.8 0.7--ESE30.08- 75.4 75.0 69.1---
2026-08-30 07:10 pmWNW 3.9 5.8 0.7-- SE30.08- 75.4 75.0 69.3---
2026-08-30 07:00 pm NW 5.8 7.8 0.7-- SE30.08+0.06 75.4 75.0 69.3---
2026-08-30 06:50 pm W 3.9 5.8 0.7--ESE30.08- 75.6 75.0 69.3---
2026-08-30 06:40 pm W 3.9 3.9 0.7-- E30.07- 75.7 75.0 69.1---
2026-08-30 06:30 pmWSW 1.9 3.9 0.7-- E30.06- 75.9 75.0 68.7---
2026-08-30 06:20 pm S 3.9 3.9 0.7--ESE30.05- 76.1 75.0 68.7---
2026-08-30 06:10 pmSSE 3.9 3.9 1.0 2-ESE30.04- 75.9 75.0 68.4---
2026-08-30 06:00 pmSSE 3.9 5.8 1.0 2- E30.04-0.03 75.7 75.0 68.2---
2026-08-30 05:50 pmSSE 3.9 5.8 1.0 2- SE30.04- 75.7 75.0 67.8---
2026-08-30 05:40 pm SE 5.8 7.8 1.0 2-ESE30.03- 75.7 75.0 67.8---
2026-08-30 05:30 pm SE 5.8 7.8 1.0 2- E30.03- 75.7 75.0 67.6---
2026-08-30 05:20 pm SE 5.8 9.7 1.0 2-ESE30.03- 75.4 75.0 67.6---
2026-08-30 05:10 pm SE 7.8 9.7 1.0 2-ESE30.03- 75.2 75.0 68.0---
2026-08-30 05:00 pmSSE 7.8 9.7 1.0 2- SE30.03-0.07 75.6 75.0 68.0---
2026-08-30 04:50 pm SE 7.8 11.7 1.0-- SE30.03- 75.4 75.0 68.0---
2026-08-30 04:40 pm SE 9.7 13.6 1.0-- SE30.03- 75.4 75.0 67.6---
2026-08-30 04:30 pm SE 11.7 15.5 1.0-- SE30.02- 75.2 75.0 67.5---
2026-08-30 04:20 pmSSE 11.7 13.6 1.0-- SE30.03- 75.0 75.0 67.5---
2026-08-30 04:10 pmSSE 11.7 13.6 1.0-- SE30.03- 74.7 75.0 67.5---
2026-08-30 04:00 pm SE 11.7 17.5 1.0-- SE30.02-0.10 74.3 75.0 67.5---
2026-08-30 03:50 pmSSE 9.7 13.6 1.0-- SE30.04- 73.9 75.0 67.3---
2026-08-30 03:40 pmSSE 9.7 13.6 1.0 3- SE30.05- 73.9 75.0 67.1---
2026-08-30 03:30 pmSSE 9.7 11.7 1.0--ESE30.06- 73.8 75.0 66.9---
2026-08-30 03:20 pmSSE 9.7 11.7 1.0--SSE30.06- 73.9 75.0 67.1---
2026-08-30 03:10 pmSSE 9.7 15.5 1.0--SSE30.06- 73.9 74.8 66.9---
2026-08-30 03:00 pmSSE 9.7 13.6 1.0--SSE30.07-0.08 73.8 74.8 67.1---
2026-08-30 02:50 pmSSE 11.7 15.5 1.0 2- SE30.07- 73.6 74.8 67.3---
2026-08-30 02:40 pmSSE 13.6 17.5 1.0--SSE30.07- 73.4 74.8 67.1---
2026-08-30 02:30 pm S 11.7 15.5 1.0-- SE30.09- 73.2 74.8 67.3---
2026-08-30 02:20 pm S 11.7 15.5 1.0 2-SSE30.09- 73.0 74.8 67.1---
2026-08-30 02:10 pm S 9.7 15.5 1.0 2- SE30.10- 72.9 74.8 67.1---
2026-08-30 02:00 pmSSE 11.7 15.5 1.0 2-SSE30.10-0.04 72.7 74.8 67.3---
2026-08-30 01:50 pmSSE 11.7 15.5 1.0 2-SSE30.10- 72.9 74.8 66.9---
2026-08-30 01:30 pmSSE 9.7 13.6 1.0 2- NE30.11- 73.2 74.8 67.5---
2026-08-30 01:20 pmSSE 7.8 11.7 0.7--NNE30.12- 73.2 74.8 66.6---
2026-08-30 01:10 pmSSE 7.8 9.7 0.7-- SE30.12- 73.0 74.8 66.6---
2026-08-30 01:00 pmSSE 3.9 7.8 0.7-- W30.12+0.00 73.0 74.8 66.0---
2026-08-30 12:50 pm S 3.9 5.8 0.7-- NW30.12- 73.0 74.8 65.3---
2026-08-30 12:40 pm W 1.9 5.8 0.7--NNE30.13- 73.0 74.8 65.7---
2026-08-30 12:30 pmWNW 3.9 7.8 0.7--NNE30.14- 72.9 74.8 66.0---
2026-08-30 12:20 pm NW 5.8 7.8 1.0 2- NW30.14- 72.7 74.8 65.8---
2026-08-30 12:10 pm NW 5.8 7.8 1.0 2- NW30.14- 72.5 74.7 65.7---
2026-08-30 12:00 pmNNW 5.8 9.7 1.0 2-NNW30.15+0.06 72.7 74.7 65.8---
2026-08-30 11:50 amNNW 7.8 9.7 1.0 2-WNW30.15- 72.9 74.7 65.1---

Wave Summary
for 45201 as of (11:50 am EDT)
1550 GMT on 08/31/2026:

These wave data are displayed in rounded times.

     

Click on the graph icon in the table below to see a time series plot of the last five days of that observation.

5-day plot - Significant Wave Height Significant Wave Height (WVHT): 1.0 ft
Previous observations
TIME
(EDT)
5-day plot - Wave Height
WVHT
ft
5-day plot - Swell Height
SwH
ft
5-day plot - Swell Period
SwP
sec
5-day plot - Swell Direction
SwD
 
5-day plot - Wind Wave Height
WWH
ft
5-day plot - Wind Wave Period
WWP
sec
5-day plot - Wind Wave Direction
WWD
 
5-day plot - Wave Steepness
STEEPNESS
 
5-day plot - Average Wave Period
APD
sec
2026-08-31 11:40 am 1.0------ N/A-
2026-08-31 11:30 am 1.0------ N/A-
2026-08-31 11:20 am 1.0------ N/A-
2026-08-31 11:10 am 1.0------ N/A-
2026-08-31 11:00 am 1.0------ N/A-
2026-08-31 10:50 am 1.0------ N/A-
2026-08-31 10:40 am 0.7------ N/A-
2026-08-31 10:30 am 0.7------ N/A-
2026-08-31 10:20 am 0.7------ N/A-
2026-08-31 10:10 am 1.0------ N/A-
2026-08-31 10:00 am 0.7------ N/A-
2026-08-31 09:50 am 0.7------ N/A-
2026-08-31 09:40 am 0.7------ N/A-
2026-08-31 09:30 am 0.7------ N/A-
2026-08-31 09:20 am 0.7------ N/A-
2026-08-31 09:10 am 0.7------ N/A-
2026-08-31 09:00 am 0.7------ N/A-
2026-08-31 08:50 am 0.7------ N/A-
2026-08-31 08:40 am 0.7------ N/A-
2026-08-31 08:30 am 0.7------ N/A-
2026-08-31 08:20 am 0.7------ N/A-
2026-08-31 08:10 am 0.7------ N/A-
2026-08-31 08:00 am 0.7------ N/A-
2026-08-31 07:50 am 0.7------ N/A-
2026-08-31 07:40 am 0.7------ N/A-
2026-08-31 07:30 am 0.7------ N/A-
2026-08-31 07:20 am 0.7------ N/A-
2026-08-31 07:10 am 0.7------ N/A-
2026-08-31 07:00 am 0.7------ N/A-
2026-08-31 06:50 am 0.7------ N/A-
2026-08-31 06:40 am 0.7------ N/A-
2026-08-31 06:30 am 0.7------ N/A-
2026-08-31 06:20 am 0.7------ N/A-
2026-08-31 06:10 am 0.7------ N/A-
2026-08-31 06:00 am 1.0------ N/A-
2026-08-31 05:50 am 1.0------ N/A-
2026-08-31 05:40 am 1.0------ N/A-
2026-08-31 05:30 am 1.0------ N/A-
2026-08-31 05:20 am 1.0------ N/A-
2026-08-31 05:10 am 1.0------ N/A-
2026-08-31 05:00 am 1.0------ N/A-
2026-08-31 04:50 am 0.7------ N/A-
2026-08-31 04:40 am 0.7------ N/A-
2026-08-31 04:30 am 1.0------ N/A-
2026-08-31 04:20 am 0.7------ N/A-
2026-08-31 04:10 am 1.0------ N/A-
2026-08-31 04:00 am 1.0------ N/A-
2026-08-31 03:50 am 0.7------ N/A-
2026-08-31 03:40 am 0.7------ N/A-
2026-08-31 03:30 am 1.0------ N/A-
2026-08-31 03:20 am 0.7------ N/A-
2026-08-31 03:10 am 1.0------ N/A-
2026-08-31 03:00 am 1.0------ N/A-
2026-08-31 02:50 am 1.0------ N/A-
2026-08-31 02:40 am 1.0------ N/A-
2026-08-31 02:30 am 1.0------ N/A-
2026-08-31 02:20 am 1.0------ N/A-
2026-08-31 02:10 am 1.0------ N/A-
2026-08-31 02:00 am 1.0------ N/A-
2026-08-31 01:50 am 1.0------ N/A-
2026-08-31 01:40 am 1.0------ N/A-
2026-08-31 01:30 am 1.0------ N/A-
2026-08-31 01:20 am 1.0------ N/A-
2026-08-31 01:10 am 1.0------ N/A-
2026-08-31 01:00 am 1.0------ N/A-
2026-08-31 12:50 am 1.0------ N/A-
2026-08-31 12:40 am 1.0------ N/A-
2026-08-31 12:30 am 1.0------ N/A-
2026-08-31 12:20 am 1.3------ N/A-
2026-08-31 12:10 am 1.3------ N/A-
2026-08-31 12:00 am 1.0------ N/A-
2026-08-30 11:50 pm 1.3------ N/A-
2026-08-30 11:40 pm 1.0------ N/A-
2026-08-30 11:30 pm 1.0------ N/A-
2026-08-30 11:20 pm 1.0------ N/A-
2026-08-30 11:10 pm 1.0------ N/A-
2026-08-30 11:00 pm 1.0------ N/A-
2026-08-30 10:50 pm 1.0------ N/A-
2026-08-30 10:40 pm 1.0------ N/A-
2026-08-30 10:30 pm 1.0------ N/A-
2026-08-30 10:20 pm 0.7------ N/A-
2026-08-30 10:10 pm 0.7------ N/A-
2026-08-30 10:00 pm 0.7------ N/A-
2026-08-30 09:50 pm 0.7------ N/A-
2026-08-30 09:40 pm 0.7------ N/A-
2026-08-30 09:30 pm 0.7------ N/A-
2026-08-30 09:20 pm 0.7------ N/A-
2026-08-30 09:10 pm 0.3------ N/A-
2026-08-30 09:00 pm 0.3------ N/A-
2026-08-30 08:50 pm 0.3------ N/A-
2026-08-30 08:40 pm 0.7------ N/A-
2026-08-30 08:30 pm 0.3------ N/A-
2026-08-30 08:20 pm 0.7------ N/A-
2026-08-30 08:10 pm 0.7------ N/A-
2026-08-30 08:00 pm 0.7------ N/A-
2026-08-30 07:50 pm 0.7------ N/A-
2026-08-30 07:40 pm 0.7------ N/A-
2026-08-30 07:30 pm 0.7------ N/A-
2026-08-30 07:20 pm 0.7------ N/A-
2026-08-30 07:10 pm 0.7------ N/A-
2026-08-30 07:00 pm 0.7------ N/A-
2026-08-30 06:50 pm 0.7------ N/A-
2026-08-30 06:40 pm 0.7------ N/A-
2026-08-30 06:30 pm 0.7------ N/A-
2026-08-30 06:20 pm 0.7------ N/A-
2026-08-30 06:10 pm 1.0------ N/A-
2026-08-30 06:00 pm 1.0------ N/A-
2026-08-30 05:50 pm 1.0------ N/A-
2026-08-30 05:40 pm 1.0------ N/A-
2026-08-30 05:30 pm 1.0------ N/A-
2026-08-30 05:20 pm 1.0------ N/A-
2026-08-30 05:10 pm 1.0------ N/A-
2026-08-30 05:00 pm 1.0------ N/A-
2026-08-30 04:50 pm 1.0------ N/A-
2026-08-30 04:40 pm 1.0------ N/A-
2026-08-30 04:30 pm 1.0------ N/A-
2026-08-30 04:20 pm 1.0------ N/A-
2026-08-30 04:10 pm 1.0------ N/A-
2026-08-30 04:00 pm 1.0------ N/A-
2026-08-30 03:50 pm 1.0------ N/A-
2026-08-30 03:40 pm 1.0------ N/A-
2026-08-30 03:30 pm 1.0------ N/A-
2026-08-30 03:20 pm 1.0------ N/A-
2026-08-30 03:10 pm 1.0------ N/A-
2026-08-30 03:00 pm 1.0------ N/A-
2026-08-30 02:50 pm 1.0------ N/A-
2026-08-30 02:40 pm 1.0------ N/A-
2026-08-30 02:30 pm 1.0------ N/A-
2026-08-30 02:20 pm 1.0------ N/A-
2026-08-30 02:10 pm 1.0------ N/A-
2026-08-30 02:00 pm 1.0------ N/A-
2026-08-30 01:50 pm 1.0------ N/A-
2026-08-30 01:30 pm 1.0------ N/A-
2026-08-30 01:20 pm 0.7------ N/A-
2026-08-30 01:10 pm 0.7------ N/A-
2026-08-30 01:00 pm 0.7------ N/A-
2026-08-30 12:50 pm 0.7------ N/A-
2026-08-30 12:40 pm 0.7------ N/A-
2026-08-30 12:30 pm 0.7------ N/A-
2026-08-30 12:20 pm 1.0------ N/A-
2026-08-30 12:10 pm 1.0------ N/A-
2026-08-30 12:00 pm 1.0------ N/A-
2026-08-30 11:50 am 1.0------ N/A-

Solar Radiation Conditions at 45201 as of
(11:50 am EDT)
1550 GMT on 08/31/2026:
     

Click on the graph icon in the table below to see a time series plot of the last five days of that observation.

5-day plot - Short Wave Radiation 1 Short Wave Radiation 1 (SRAD1): 657.8watts/meter2
Previous observations
TIME
(EDT)
5-day plot - Short Wave Radiation 1
SRAD1
w/m2
5-day plot - Short Wave Radiation 2
SRAD2
w/m2
5-day plot - Long Wave Radiation
LRAD
w/m2
2026-08-31 11:40 am 463.1--
2026-08-31 11:30 am 468.5--
2026-08-31 11:20 am 493.9--
2026-08-31 11:10 am 545.6--
2026-08-31 11:00 am 456.4--
2026-08-31 10:50 am 273.3--
2026-08-31 10:40 am 212.5--
2026-08-31 10:30 am 261.0--
2026-08-31 10:20 am 367.0--
2026-08-31 10:10 am 551.1--
2026-08-31 10:00 am 198.2--
2026-08-31 09:50 am 112.2--
2026-08-31 09:40 am 87.7--
2026-08-31 09:30 am 112.4--
2026-08-31 09:20 am 108.4--
2026-08-31 09:10 am 105.3--
2026-08-31 09:00 am 99.1--
2026-08-31 08:50 am 70.1--
2026-08-31 08:40 am 54.3--
2026-08-31 08:30 am 59.5--
2026-08-31 08:20 am 59.7--
2026-08-31 08:10 am 37.3--
2026-08-31 08:00 am 19.2--
2026-08-31 07:50 am 20.1--
2026-08-31 07:40 am 16.3--
2026-08-31 07:30 am 6.2--
2026-08-31 07:20 am 4.5--
2026-08-31 07:10 am 3.1--
2026-08-31 07:00 am 1.3--
2026-08-31 06:50 am 0.2--
2026-08-31 06:40 am 0.0--
2026-08-31 06:30 am 0.0--
2026-08-31 06:20 am 0.0--
2026-08-31 06:10 am 0.0--
2026-08-31 06:00 am 0.0--
2026-08-31 05:50 am 0.0--
2026-08-31 05:40 am 0.0--
2026-08-31 05:30 am 0.0--
2026-08-31 05:20 am 0.0--
2026-08-31 05:10 am 0.0--
2026-08-31 05:00 am 0.0--
2026-08-31 04:50 am 0.0--
2026-08-31 04:40 am 0.0--
2026-08-31 04:30 am 0.0--
2026-08-31 04:20 am 0.0--
2026-08-31 04:10 am 0.0--
2026-08-31 04:00 am 0.0--
2026-08-31 03:50 am 0.0--
2026-08-31 03:40 am 0.0--
2026-08-31 03:30 am 0.0--
2026-08-31 03:20 am 0.0--
2026-08-31 03:10 am 0.0--
2026-08-31 03:00 am 0.0--
2026-08-31 02:50 am 0.0--
2026-08-31 02:40 am 0.0--
2026-08-31 02:30 am 0.0--
2026-08-31 02:20 am 0.0--
2026-08-31 02:10 am 0.0--
2026-08-31 02:00 am 0.0--
2026-08-31 01:50 am 0.0--
2026-08-31 01:40 am 0.0--
2026-08-31 01:30 am 0.0--
2026-08-31 01:20 am 0.0--
2026-08-31 01:10 am 0.0--
2026-08-31 01:00 am 0.0--
2026-08-31 12:50 am 0.0--
2026-08-31 12:40 am 0.0--
2026-08-31 12:30 am 0.0--
2026-08-31 12:20 am 0.0--
2026-08-31 12:10 am 0.0--
2026-08-31 12:00 am 0.0--
2026-08-30 11:50 pm 0.0--
2026-08-30 11:40 pm 0.0--
2026-08-30 11:30 pm 0.0--
2026-08-30 11:20 pm 0.0--
2026-08-30 11:10 pm 0.0--
2026-08-30 11:00 pm 0.0--
2026-08-30 10:50 pm 0.0--
2026-08-30 10:40 pm 0.0--
2026-08-30 10:30 pm 0.0--
2026-08-30 10:20 pm 0.0--
2026-08-30 10:10 pm 0.0--
2026-08-30 10:00 pm 0.0--
2026-08-30 09:50 pm 0.0--
2026-08-30 09:40 pm 0.0--
2026-08-30 09:30 pm 0.0--
2026-08-30 09:20 pm 0.0--
2026-08-30 09:10 pm 0.0--
2026-08-30 09:00 pm 0.0--
2026-08-30 08:50 pm 0.0--
2026-08-30 08:40 pm 0.0--
2026-08-30 08:30 pm 0.1--
2026-08-30 08:20 pm 0.4--
2026-08-30 08:10 pm 1.4--
2026-08-30 08:00 pm 4.1--
2026-08-30 07:50 pm 7.1--
2026-08-30 07:40 pm 10.5--
2026-08-30 07:30 pm 10.9--
2026-08-30 07:20 pm 17.5--
2026-08-30 07:10 pm 19.0--
2026-08-30 07:00 pm 26.3--
2026-08-30 06:50 pm 37.5--
2026-08-30 06:40 pm 38.2--
2026-08-30 06:30 pm 78.0--
2026-08-30 06:20 pm 158.4--
2026-08-30 06:10 pm 237.6--
2026-08-30 06:00 pm 190.8--
2026-08-30 05:50 pm 198.1--
2026-08-30 05:40 pm 159.5--
2026-08-30 05:30 pm 174.2--
2026-08-30 05:20 pm 183.8--
2026-08-30 05:10 pm 137.3--
2026-08-30 05:00 pm 66.3--
2026-08-30 04:50 pm 140.3--
2026-08-30 04:40 pm 218.5--
2026-08-30 04:30 pm 391.1--
2026-08-30 04:20 pm 400.3--
2026-08-30 04:10 pm 367.1--
2026-08-30 04:00 pm 253.8--
2026-08-30 03:50 pm 189.8--
2026-08-30 03:40 pm 188.7--
2026-08-30 03:30 pm 199.3--
2026-08-30 03:20 pm 216.1--
2026-08-30 03:10 pm 217.8--
2026-08-30 03:00 pm 207.6--
2026-08-30 02:50 pm 188.4--
2026-08-30 02:40 pm 187.0--
2026-08-30 02:30 pm 219.7--
2026-08-30 02:20 pm 234.6--
2026-08-30 02:10 pm 203.6--
2026-08-30 02:00 pm 183.1--
2026-08-30 01:50 pm 138.7--
2026-08-30 01:30 pm 141.8--
2026-08-30 01:20 pm 160.4--
2026-08-30 01:10 pm 160.9--
2026-08-30 01:00 pm 164.7--
2026-08-30 12:50 pm 174.5--
2026-08-30 12:40 pm 161.0--
2026-08-30 12:30 pm 168.4--
2026-08-30 12:20 pm 205.4--
2026-08-30 12:10 pm 152.7--
2026-08-30 12:00 pm 133.1--
2026-08-30 11:50 am 92.9--